createdAt,value
2022-09-23T00:00:17.714Z,3.30
2022-09-23T00:01:19.744Z,3.30
2022-09-23T00:02:22.114Z,3.20
2022-09-23T00:03:23.686Z,3.00
2022-09-23T00:04:25.906Z,3.60
2022-09-23T00:05:28.840Z,3.70
2022-09-23T00:06:30.380Z,4.30
2022-09-23T00:07:31.965Z,4.17
2022-09-23T00:08:33.867Z,4.00
2022-09-23T00:09:35.401Z,3.80
2022-09-23T00:10:39.303Z,4.07
2022-09-23T00:11:40.840Z,4.20
2022-09-23T00:12:42.355Z,3.30
2022-09-23T00:13:46.400Z,3.03
2022-09-23T00:14:47.998Z,2.87
2022-09-23T00:15:50.092Z,2.87
2022-09-23T00:16:51.678Z,3.00
2022-09-23T00:17:53.256Z,2.80
2022-09-23T00:18:54.911Z,2.60
2022-09-23T00:19:56.480Z,2.83
2022-09-23T00:20:58.087Z,3.60
2022-09-23T00:21:59.595Z,2.93
2022-09-23T00:23:01.479Z,3.27
2022-09-23T00:24:03.036Z,3.20
2022-09-23T00:25:06.487Z,2.80
2022-09-23T00:26:10.089Z,2.73
2022-09-23T00:27:11.623Z,2.77
2022-09-23T00:28:13.133Z,3.10
2022-09-23T00:29:16.046Z,3.10
2022-09-23T00:30:18.523Z,2.87
2022-09-23T00:31:23.405Z,2.60
2022-09-23T00:32:25.091Z,2.80
2022-09-23T00:33:26.661Z,2.80
2022-09-23T00:34:28.258Z,2.77
2022-09-23T00:35:29.833Z,3.10
2022-09-23T00:36:32.407Z,3.50
2022-09-23T00:37:34.163Z,2.90
2022-09-23T00:38:35.693Z,2.90
2022-09-23T00:39:37.209Z,3.10
2022-09-23T00:40:43.703Z,2.70
2022-09-23T00:41:45.296Z,3.00
2022-09-23T00:42:51.308Z,3.30
2022-09-23T00:43:56.391Z,3.47
2022-09-23T00:44:59.802Z,2.90
2022-09-23T00:46:01.484Z,2.93
2022-09-23T00:47:03.391Z,3.00
2022-09-23T00:48:06.386Z,2.80
2022-09-23T00:49:23.560Z,3.37
2022-09-23T00:50:30.723Z,2.87
2022-09-23T00:51:37.814Z,3.17
2022-09-23T00:52:39.948Z,2.97
2022-09-23T00:53:42.059Z,3.23
2022-09-23T00:54:46.231Z,2.63
2022-09-23T00:55:54.743Z,3.00
2022-09-23T00:56:57.777Z,2.93
2022-09-23T00:58:02.831Z,3.00
2022-09-23T00:59:05.223Z,2.80
2022-09-23T01:00:07.778Z,2.80
2022-09-23T01:01:09.638Z,3.00
2022-09-23T01:02:14.329Z,2.70
2022-09-23T01:03:16.620Z,2.73
2022-09-23T01:04:19.279Z,2.77
2022-09-23T01:05:21.480Z,2.80
2022-09-23T01:06:23.207Z,2.83
2022-09-23T01:07:24.756Z,3.10
2022-09-23T01:08:27.859Z,2.77
2022-09-23T01:09:29.445Z,3.37
2022-09-23T01:10:41.319Z,3.10
2022-09-23T01:12:01.581Z,2.73
2022-09-23T01:13:03.000Z,2.87
2022-09-23T01:14:07.375Z,2.83
2022-09-23T01:15:11.911Z,2.73
2022-09-23T01:16:18.551Z,2.90
2022-09-23T01:17:35.067Z,2.70
2022-09-23T01:18:53.211Z,2.93
2022-09-23T01:20:13.095Z,2.50
2022-09-23T01:21:43.241Z,2.77
2022-09-23T01:23:16.637Z,2.70
2022-09-23T01:24:45.631Z,2.53
2022-09-23T01:26:08.377Z,2.80
2022-09-23T01:27:30.439Z,2.80
2022-09-23T01:29:27.466Z,3.00
2022-09-23T01:30:51.491Z,2.93
2022-09-23T01:32:13.897Z,3.00
2022-09-23T01:33:24.496Z,3.10
2022-09-23T01:34:42.441Z,2.90
2022-09-23T01:36:00.095Z,2.80
2022-09-23T01:37:34.055Z,2.60
2022-09-23T01:38:59.210Z,2.50
2022-09-23T01:40:07.049Z,2.93
2022-09-23T01:41:31.308Z,2.67
2022-09-23T01:42:41.573Z,2.57
2022-09-23T01:43:54.832Z,3.00
2022-09-23T01:45:15.448Z,3.20
2022-09-23T01:46:24.844Z,2.83
2022-09-23T01:47:39.855Z,3.20
2022-09-23T01:48:55.346Z,3.60
2022-09-23T01:50:25.039Z,3.47
2022-09-23T01:51:35.722Z,3.20
2022-09-23T01:52:44.618Z,3.03
2022-09-23T01:54:09.767Z,2.63
2022-09-23T01:55:19.127Z,2.70
2022-09-23T01:56:26.140Z,3.07
2022-09-23T01:57:37.378Z,3.30
2022-09-23T01:58:49.787Z,3.40
2022-09-23T01:59:57.727Z,2.83
2022-09-23T02:01:02.816Z,2.87
2022-09-23T02:02:15.334Z,3.43
2022-09-23T02:03:26.873Z,3.10
2022-09-23T02:04:39.539Z,3.00
2022-09-23T02:05:58.625Z,3.33
2022-09-23T02:07:08.090Z,2.97
2022-09-23T02:08:25.776Z,3.03
2022-09-23T02:09:35.137Z,2.93
2022-09-23T02:10:41.036Z,3.67
2022-09-23T02:11:48.159Z,3.00
2022-09-23T02:12:53.460Z,3.47
2022-09-23T02:13:55.105Z,2.97
2022-09-23T02:15:00.955Z,3.20
2022-09-23T02:16:10.887Z,2.80
2022-09-23T02:17:18.335Z,3.23
2022-09-23T02:18:24.403Z,3.23
2022-09-23T02:19:43.653Z,3.43
2022-09-23T02:20:47.496Z,3.20
2022-09-23T02:22:08.449Z,3.30
2022-09-23T02:23:17.052Z,2.80
2022-09-23T02:24:29.973Z,3.10
2022-09-23T02:25:40.769Z,3.13
2022-09-23T02:27:03.942Z,3.17
2022-09-23T02:28:27.353Z,2.97
2022-09-23T02:29:50.352Z,3.00
2022-09-23T02:31:08.749Z,3.43
2022-09-23T02:32:28.968Z,3.00
2022-09-23T02:33:37.149Z,3.00
2022-09-23T02:35:10.147Z,3.70
2022-09-23T02:36:50.770Z,4.23
2022-09-23T02:38:25.960Z,4.63
2022-09-23T02:39:37.840Z,4.17
2022-09-23T02:41:11.540Z,4.53
2022-09-23T02:42:20.288Z,5.40
2022-09-23T02:43:35.481Z,5.13
2022-09-23T02:44:37.073Z,5.13
2022-09-23T02:45:39.186Z,4.50
2022-09-23T02:46:43.653Z,5.20
2022-09-23T02:47:52.858Z,5.00
2022-09-23T02:49:00.924Z,5.37
2022-09-23T02:50:02.804Z,5.53
2022-09-23T02:51:04.913Z,5.93
2022-09-23T02:52:07.675Z,5.90
2022-09-23T02:53:10.656Z,6.17
2022-09-23T02:54:16.847Z,6.10
2022-09-23T02:55:22.224Z,6.10
2022-09-23T02:56:24.581Z,6.60
2022-09-23T02:57:26.478Z,5.67
2022-09-23T02:58:29.183Z,5.73
2022-09-23T02:59:31.889Z,5.87
2022-09-23T03:00:45.175Z,5.57
2022-09-23T03:02:14.472Z,5.80
2022-09-23T03:03:29.961Z,5.67
2022-09-23T03:04:57.029Z,5.80
2022-09-23T03:06:05.054Z,5.80
2022-09-23T03:07:21.670Z,5.93
2022-09-23T03:08:40.463Z,6.00
2022-09-23T03:09:52.776Z,5.87
2022-09-23T03:11:05.249Z,6.13
2022-09-23T03:12:36.135Z,6.33
2022-09-23T03:13:58.748Z,6.23
2022-09-23T03:15:22.774Z,6.93
2022-09-23T03:16:40.235Z,5.57
2022-09-23T03:18:31.594Z,5.33
2022-09-23T03:19:54.041Z,5.43
2022-09-23T03:21:03.197Z,5.27
2022-09-23T03:22:13.027Z,5.43
2022-09-23T03:23:18.924Z,5.33
2022-09-23T03:24:23.906Z,6.03
2022-09-23T03:25:28.129Z,5.60
2022-09-23T03:26:36.549Z,6.00
2022-09-23T03:27:42.489Z,5.80
2022-09-23T03:28:45.661Z,5.90
2022-09-23T03:29:49.982Z,5.70
2022-09-23T03:30:53.215Z,5.97
2022-09-23T03:31:57.246Z,6.20
2022-09-23T03:33:00.954Z,5.90
2022-09-23T03:34:09.756Z,5.50
2022-09-23T03:35:13.124Z,5.53
2022-09-23T03:36:37.145Z,4.53
2022-09-23T03:38:11.250Z,4.13
2022-09-23T03:39:17.941Z,3.93
2022-09-23T03:40:28.088Z,3.67
2022-09-23T03:41:37.244Z,3.20
2022-09-23T03:42:39.691Z,4.13
2022-09-23T03:43:41.215Z,4.00
2022-09-23T03:44:45.453Z,4.37
2022-09-23T03:45:47.474Z,4.60
2022-09-23T03:46:52.166Z,4.13
2022-09-23T03:47:53.687Z,4.03
2022-09-23T03:49:27.330Z,4.27
2022-09-23T03:50:29.103Z,4.03
2022-09-23T03:51:30.620Z,5.33
2022-09-23T03:52:32.393Z,4.47
2022-09-23T03:53:33.932Z,4.80
2022-09-23T03:54:35.585Z,4.33
2022-09-23T03:55:39.394Z,4.20
2022-09-23T03:56:41.040Z,4.50
2022-09-23T03:57:43.525Z,4.20
2022-09-23T03:58:46.494Z,6.07
2022-09-23T03:59:50.535Z,6.33
2022-09-23T04:00:54.724Z,6.73
2022-09-23T04:01:59.553Z,7.50
2022-09-23T04:03:01.177Z,7.40
2022-09-23T04:04:02.721Z,7.57
2022-09-23T04:05:05.217Z,7.13
2022-09-23T04:06:06.882Z,7.53
2022-09-23T04:07:08.994Z,7.43
2022-09-23T04:08:10.520Z,7.43
2022-09-23T04:09:12.103Z,6.67
2022-09-23T04:10:13.608Z,7.90
2022-09-23T04:11:15.119Z,7.17
2022-09-23T04:12:17.254Z,6.60
2022-09-23T04:13:18.791Z,7.00
2022-09-23T04:14:21.762Z,6.50
2022-09-23T04:15:23.361Z,6.60
2022-09-23T04:16:25.504Z,6.70
2022-09-23T04:17:27.213Z,6.50
2022-09-23T04:18:28.729Z,5.77
2022-09-23T04:19:30.320Z,6.53
2022-09-23T04:20:31.856Z,5.70
2022-09-23T04:21:33.388Z,5.90
2022-09-23T04:22:35.102Z,6.00
2022-09-23T04:23:36.646Z,5.60
2022-09-23T04:24:38.165Z,5.67
2022-09-23T04:25:49.219Z,5.70
2022-09-23T04:26:53.383Z,6.10
2022-09-23T04:27:54.937Z,5.87
2022-09-23T04:28:56.798Z,5.70
2022-09-23T04:29:58.332Z,5.67
2022-09-23T04:31:03.604Z,5.70
2022-09-23T04:32:05.267Z,6.13
2022-09-23T04:33:06.875Z,6.07
2022-09-23T04:34:09.462Z,6.50
2022-09-23T04:35:11.075Z,5.90
2022-09-23T04:36:12.687Z,6.13
2022-09-23T04:37:14.339Z,5.90
2022-09-23T04:38:15.860Z,6.67
2022-09-23T04:39:18.257Z,6.10
2022-09-23T04:40:19.808Z,6.20
2022-09-23T04:41:21.508Z,6.10
2022-09-23T04:42:23.381Z,5.70
2022-09-23T04:43:24.918Z,6.13
2022-09-23T04:44:28.134Z,5.83
2022-09-23T04:45:30.437Z,6.57
2022-09-23T04:46:32.040Z,5.93
2022-09-23T04:47:33.666Z,6.17
2022-09-23T04:48:39.461Z,6.60
2022-09-23T04:49:41.164Z,6.17
2022-09-23T04:50:42.891Z,5.57
2022-09-23T04:51:45.029Z,6.43
2022-09-23T04:52:46.819Z,6.40
2022-09-23T04:53:50.701Z,6.30
2022-09-23T04:54:52.268Z,5.97
2022-09-23T04:55:53.970Z,6.20
2022-09-23T04:56:55.568Z,6.43
2022-09-23T04:57:57.191Z,6.13
2022-09-23T04:58:58.740Z,6.60
2022-09-23T05:00:01.132Z,6.50
2022-09-23T05:01:33.483Z,6.80
2022-09-23T05:02:35.718Z,6.50
2022-09-23T05:03:37.395Z,6.40
2022-09-23T05:04:39.330Z,6.43
2022-09-23T05:05:40.874Z,6.87
2022-09-23T05:06:45.160Z,7.13
2022-09-23T05:07:48.519Z,6.33
2022-09-23T05:08:54.443Z,6.93
2022-09-23T05:09:56.035Z,6.43
2022-09-23T05:10:58.946Z,6.40
2022-09-23T05:12:00.565Z,6.47
2022-09-23T05:13:02.053Z,6.83
2022-09-23T05:14:03.744Z,6.30
2022-09-23T05:15:05.905Z,6.50
2022-09-23T05:16:11.077Z,6.13
2022-09-23T05:17:12.678Z,5.70
2022-09-23T05:18:17.844Z,5.13
2022-09-23T05:19:21.855Z,5.43
2022-09-23T05:20:23.431Z,4.47
2022-09-23T05:21:27.507Z,5.00
2022-09-23T05:22:29.995Z,5.10
2022-09-23T05:23:31.557Z,4.73
2022-09-23T05:24:33.130Z,5.10
2022-09-23T05:25:38.211Z,5.23
2022-09-23T05:26:40.066Z,5.27
2022-09-23T05:27:42.334Z,5.67
2022-09-23T05:28:44.213Z,5.20
2022-09-23T05:29:46.326Z,4.63
2022-09-23T05:30:47.873Z,4.63
2022-09-23T05:31:49.509Z,4.50
2022-09-23T05:32:51.215Z,4.20
2022-09-23T05:33:57.284Z,4.03
2022-09-23T05:34:58.926Z,4.13
2022-09-23T05:36:01.311Z,4.23
2022-09-23T05:37:03.340Z,4.40
2022-09-23T05:38:04.974Z,4.07
2022-09-23T05:39:07.925Z,4.67
2022-09-23T05:40:10.039Z,4.53
2022-09-23T05:41:13.408Z,4.23
2022-09-23T05:42:18.178Z,4.53
2022-09-23T05:43:19.698Z,4.80
2022-09-23T05:44:21.250Z,4.60
2022-09-23T05:45:26.808Z,4.50
2022-09-23T05:46:30.733Z,4.37
2022-09-23T05:47:32.354Z,4.13
2022-09-23T05:48:35.572Z,4.43
2022-09-23T05:49:58.211Z,4.47
2022-09-23T05:50:59.585Z,4.20
2022-09-23T05:52:02.689Z,4.23
2022-09-23T05:53:04.258Z,4.23
2022-09-23T05:54:06.188Z,4.40
2022-09-23T05:55:08.281Z,4.20
2022-09-23T05:56:09.811Z,4.27
2022-09-23T05:57:11.995Z,4.40
2022-09-23T05:58:13.890Z,4.30
2022-09-23T05:59:15.420Z,4.23
2022-09-23T06:00:17.540Z,4.13
2022-09-23T06:01:21.593Z,4.33
2022-09-23T06:02:23.472Z,4.77
2022-09-23T06:03:26.211Z,4.40
2022-09-23T06:04:27.871Z,4.30
2022-09-23T06:05:31.001Z,4.83
2022-09-23T06:06:36.045Z,4.53
2022-09-23T06:07:38.143Z,5.40
2022-09-23T06:08:39.689Z,5.27
2022-09-23T06:09:42.293Z,4.87
2022-09-23T06:10:47.875Z,5.33
2022-09-23T06:11:51.243Z,5.37
2022-09-23T06:12:52.765Z,5.10
2022-09-23T06:13:55.748Z,5.37
2022-09-23T06:14:57.678Z,4.67
2022-09-23T06:15:59.380Z,4.37
2022-09-23T06:17:00.998Z,5.13
2022-09-23T06:18:02.973Z,4.80
2022-09-23T06:19:07.599Z,5.00
2022-09-23T06:20:09.650Z,4.50
2022-09-23T06:21:17.024Z,4.43
2022-09-23T06:22:18.826Z,4.17
2022-09-23T06:23:23.414Z,4.50
2022-09-23T06:24:31.120Z,4.17
2022-09-23T06:25:34.050Z,4.60
2022-09-23T06:26:37.747Z,4.70
2022-09-23T06:27:39.292Z,4.30
2022-09-23T06:28:43.002Z,4.63
2022-09-23T06:29:44.566Z,4.03
2022-09-23T06:30:46.130Z,4.77
2022-09-23T06:31:49.809Z,4.13
2022-09-23T06:32:52.191Z,4.17
2022-09-23T06:34:05.528Z,4.73
2022-09-23T06:35:23.446Z,4.60
2022-09-23T06:36:40.075Z,4.40
2022-09-23T06:37:44.964Z,4.50
2022-09-23T06:38:49.292Z,4.30
2022-09-23T06:39:50.843Z,4.73
2022-09-23T06:40:54.590Z,4.20
2022-09-23T06:41:56.216Z,3.83
2022-09-23T06:42:59.271Z,4.53
2022-09-23T06:44:01.019Z,4.23
2022-09-23T06:45:02.712Z,4.40
2022-09-23T06:46:06.270Z,4.17
2022-09-23T06:47:07.874Z,4.03
2022-09-23T06:48:09.974Z,4.30
2022-09-23T06:49:12.187Z,4.20
2022-09-23T06:50:13.723Z,4.57
2022-09-23T06:51:19.253Z,5.03
2022-09-23T06:52:21.199Z,4.63
2022-09-23T06:53:25.618Z,4.33
2022-09-23T06:54:28.968Z,5.43
2022-09-23T06:55:31.017Z,5.53
2022-09-23T06:56:37.978Z,4.80
2022-09-23T06:57:40.322Z,4.97
2022-09-23T06:58:41.912Z,5.20
2022-09-23T06:59:43.439Z,5.50
2022-09-23T07:00:45.306Z,5.37
2022-09-23T07:01:48.407Z,5.20
2022-09-23T07:02:50.204Z,5.53
2022-09-23T07:03:51.973Z,5.70
2022-09-23T07:04:57.086Z,5.13
2022-09-23T07:05:59.826Z,6.40
2022-09-23T07:07:01.349Z,5.97
2022-09-23T07:08:03.365Z,6.03
2022-09-23T07:09:07.414Z,6.80
2022-09-23T07:10:09.821Z,7.30
2022-09-23T07:11:13.140Z,7.13
2022-09-23T07:12:14.796Z,7.63
2022-09-23T07:13:16.535Z,10.53
2022-09-23T07:14:18.073Z,9.90
2022-09-23T07:15:19.585Z,9.97
2022-09-23T07:16:21.571Z,12.03
2022-09-23T07:17:24.527Z,12.00
2022-09-23T07:18:27.194Z,11.17
2022-09-23T07:19:28.745Z,9.30
2022-09-23T07:20:30.292Z,7.80
2022-09-23T07:21:32.051Z,8.50
2022-09-23T07:22:33.647Z,7.57
2022-09-23T07:23:35.287Z,8.37
2022-09-23T07:24:37.435Z,7.73
2022-09-23T07:25:41.403Z,7.80
2022-09-23T07:26:45.691Z,6.60
2022-09-23T07:27:48.578Z,7.17
2022-09-23T07:28:55.052Z,6.83
2022-09-23T07:29:57.258Z,6.50
2022-09-23T07:31:07.715Z,5.57
2022-09-23T07:32:14.117Z,6.13
2022-09-23T07:33:28.066Z,5.50
2022-09-23T07:34:32.811Z,6.03
2022-09-23T07:35:38.271Z,5.70
2022-09-23T07:36:40.988Z,5.17
2022-09-23T07:37:42.741Z,5.70
2022-09-23T07:38:46.023Z,5.23
2022-09-23T07:39:47.608Z,5.63
2022-09-23T07:40:49.228Z,5.63
2022-09-23T07:41:51.857Z,5.63
2022-09-23T07:42:55.457Z,5.47
2022-09-23T07:44:00.167Z,5.50
2022-09-23T07:45:02.291Z,5.00
2022-09-23T07:46:14.397Z,4.47
2022-09-23T07:47:17.678Z,4.80
2022-09-23T07:48:19.204Z,4.70
2022-09-23T07:49:20.858Z,5.23
2022-09-23T07:50:22.687Z,4.97
2022-09-23T07:51:36.035Z,5.00
2022-09-23T07:52:39.365Z,4.43
2022-09-23T07:53:40.882Z,5.50
2022-09-23T07:54:42.499Z,4.47
2022-09-23T07:55:52.083Z,5.00
2022-09-23T07:56:53.605Z,5.23
2022-09-23T07:57:55.148Z,5.73
2022-09-23T07:59:00.685Z,5.10
2022-09-23T08:00:03.536Z,5.37
2022-09-23T08:01:07.163Z,5.53
2022-09-23T08:02:10.018Z,5.70
2022-09-23T08:03:11.894Z,6.40
2022-09-23T08:04:23.025Z,5.87
2022-09-23T08:05:25.969Z,5.40
2022-09-23T08:06:27.500Z,5.33
2022-09-23T08:07:29.007Z,6.50
2022-09-23T08:08:30.755Z,5.50
2022-09-23T08:09:35.073Z,5.80
2022-09-23T08:10:36.620Z,5.40
2022-09-23T08:11:41.885Z,5.17
2022-09-23T08:12:44.044Z,5.80
2022-09-23T08:13:45.569Z,6.87
2022-09-23T08:14:47.082Z,6.90
2022-09-23T08:15:53.259Z,5.93
2022-09-23T08:16:56.882Z,6.37
2022-09-23T08:17:59.881Z,5.23
2022-09-23T08:19:02.232Z,4.90
2022-09-23T08:20:04.143Z,4.70
2022-09-23T08:21:05.888Z,4.87
2022-09-23T08:22:07.415Z,4.37
2022-09-23T08:23:09.491Z,4.97
2022-09-23T08:24:19.634Z,4.17
2022-09-23T08:25:22.707Z,4.40
2022-09-23T08:26:24.699Z,4.60
2022-09-23T08:27:28.091Z,5.10
2022-09-23T08:28:30.414Z,4.30
2022-09-23T08:29:31.960Z,4.43
2022-09-23T08:30:33.525Z,4.80
2022-09-23T08:31:35.123Z,4.70
2022-09-23T08:32:36.981Z,4.80
2022-09-23T08:33:38.542Z,4.10
2022-09-23T08:34:40.043Z,4.33
2022-09-23T08:35:41.853Z,4.70
2022-09-23T08:36:43.403Z,4.27
2022-09-23T08:37:45.016Z,4.63
2022-09-23T08:38:46.522Z,4.90
2022-09-23T08:39:48.037Z,4.77
2022-09-23T08:40:50.419Z,4.07
2022-09-23T08:42:03.849Z,3.70
2022-09-23T08:43:26.716Z,4.13
2022-09-23T08:44:32.043Z,4.40
2022-09-23T08:45:36.737Z,4.40
2022-09-23T08:46:46.571Z,4.30
2022-09-23T08:48:18.350Z,4.00
2022-09-23T08:49:33.650Z,3.80
2022-09-23T08:50:48.362Z,3.63
2022-09-23T08:51:51.717Z,3.90
2022-09-23T08:52:59.873Z,3.47
2022-09-23T08:54:01.912Z,3.60
2022-09-23T08:55:04.760Z,3.10
2022-09-23T08:56:17.691Z,2.07
2022-09-23T08:58:23.399Z,2.10
2022-09-23T08:59:35.264Z,1.70
2022-09-23T09:00:43.657Z,1.77
2022-09-23T09:02:02.467Z,1.93
2022-09-23T09:03:22.583Z,2.00
2022-09-23T09:04:35.887Z,1.93
2022-09-23T09:05:37.556Z,1.80
2022-09-23T09:06:52.994Z,2.33
2022-09-23T09:07:58.770Z,2.00
2022-09-23T09:09:06.011Z,1.63
2022-09-23T09:10:24.783Z,2.10
2022-09-23T09:11:40.705Z,1.70
2022-09-23T09:12:49.870Z,1.87
2022-09-23T09:14:19.495Z,2.00
2022-09-23T09:15:29.553Z,1.80
2022-09-23T09:16:59.880Z,1.77
2022-09-23T09:18:19.963Z,2.03
2022-09-23T09:19:38.677Z,2.20
2022-09-23T09:20:57.480Z,1.97
2022-09-23T09:22:11.339Z,2.07
2022-09-23T09:23:31.051Z,2.10
2022-09-23T09:24:35.133Z,2.03
2022-09-23T09:25:49.354Z,2.13
2022-09-23T09:26:52.114Z,2.20
2022-09-23T09:27:55.906Z,1.90
2022-09-23T09:29:11.398Z,1.88
2022-09-23T09:30:25.721Z,2.03
2022-09-23T09:31:39.847Z,1.70
2022-09-23T09:32:48.658Z,1.70
2022-09-23T09:34:02.089Z,1.83
2022-09-23T09:35:23.915Z,1.63
2022-09-23T09:36:44.346Z,1.40
2022-09-23T09:37:48.750Z,1.80
2022-09-23T09:38:51.449Z,1.90
2022-09-23T09:39:53.013Z,1.50
2022-09-23T09:40:58.360Z,1.50
2022-09-23T09:42:00.608Z,1.73
2022-09-23T09:43:05.772Z,1.77
2022-09-23T09:44:19.256Z,2.00
2022-09-23T09:45:37.835Z,1.43
2022-09-23T09:46:52.866Z,1.60
2022-09-23T09:48:03.701Z,1.80
2022-09-23T09:49:25.094Z,1.80
2022-09-23T09:50:53.235Z,1.90
2022-09-23T09:52:25.991Z,2.00
2022-09-23T09:53:32.123Z,1.80
2022-09-23T09:54:33.679Z,1.67
2022-09-23T09:55:36.079Z,2.08
2022-09-23T09:56:37.898Z,1.80
2022-09-23T09:57:44.157Z,1.63
2022-09-23T09:58:53.196Z,1.50
2022-09-23T09:59:54.834Z,1.50
2022-09-23T10:00:57.043Z,1.40
2022-09-23T10:02:22.334Z,1.37
2022-09-23T10:03:33.775Z,1.30
2022-09-23T10:04:35.790Z,1.20
2022-09-23T10:05:46.711Z,1.40
2022-09-23T10:07:04.541Z,1.83
2022-09-23T10:08:23.317Z,1.40
2022-09-23T10:09:33.426Z,1.40
2022-09-23T10:10:35.025Z,1.40
2022-09-23T10:11:37.051Z,1.70
2022-09-23T10:12:46.934Z,1.27
2022-09-23T10:14:01.105Z,1.33
2022-09-23T10:15:02.628Z,1.40
2022-09-23T10:16:04.736Z,1.50
2022-09-23T10:17:08.297Z,1.35
2022-09-23T10:18:27.397Z,1.13
2022-09-23T10:19:29.573Z,1.30
2022-09-23T10:20:38.017Z,1.17
2022-09-23T10:21:39.745Z,1.50
2022-09-23T10:22:42.572Z,1.30
2022-09-23T10:23:46.580Z,1.70
2022-09-23T10:24:50.850Z,1.50
2022-09-23T10:26:05.421Z,1.40
2022-09-23T10:27:11.892Z,1.40
2022-09-23T10:28:38.204Z,1.30
2022-09-23T10:29:49.384Z,1.50
2022-09-23T10:31:13.078Z,1.50
2022-09-23T10:32:28.684Z,1.30
2022-09-23T10:33:31.772Z,1.40
2022-09-23T10:34:34.674Z,1.50
2022-09-23T10:35:36.515Z,1.47
2022-09-23T10:36:42.418Z,1.20
2022-09-23T10:37:56.073Z,1.30
2022-09-23T10:39:20.287Z,1.30
2022-09-23T10:41:01.196Z,1.40
2022-09-23T10:42:40.368Z,1.30
2022-09-23T10:44:17.123Z,1.40
2022-09-23T10:45:57.193Z,1.30
2022-09-23T10:47:14.974Z,1.40
2022-09-23T10:48:41.245Z,1.77
2022-09-23T10:50:09.756Z,1.47
2022-09-23T10:51:47.914Z,1.43
2022-09-23T10:53:00.849Z,1.20
2022-09-23T10:54:33.613Z,1.35
2022-09-23T10:56:03.323Z,1.37
2022-09-23T10:57:40.576Z,1.38
2022-09-23T10:59:06.786Z,1.40
2022-09-23T11:00:46.350Z,1.40
2022-09-23T11:02:13.178Z,1.30
2022-09-23T11:03:32.234Z,1.30
2022-09-23T11:04:55.281Z,1.37
2022-09-23T11:06:18.169Z,1.17
2022-09-23T11:07:37.212Z,1.40
2022-09-23T11:09:03.074Z,1.40
2022-09-23T11:10:28.854Z,1.83
2022-09-23T11:12:01.210Z,1.30
2022-09-23T11:13:36.067Z,1.20
2022-09-23T11:14:56.138Z,1.20
2022-09-23T11:16:28.633Z,1.47
2022-09-23T11:18:15.932Z,1.40
2022-09-23T11:19:56.513Z,1.55
2022-09-23T11:21:06.775Z,1.40
2022-09-23T11:22:32.276Z,1.35
2022-09-23T11:23:46.310Z,1.63
2022-09-23T11:25:08.339Z,1.40
2022-09-23T11:26:32.864Z,1.40
2022-09-23T11:27:34.860Z,1.70
2022-09-23T11:29:02.645Z,1.60
2022-09-23T11:30:20.029Z,1.47
2022-09-23T11:31:27.686Z,1.23
2022-09-23T11:33:05.699Z,1.50
2022-09-23T11:34:31.023Z,1.10
2022-09-23T11:35:45.866Z,1.13
2022-09-23T11:37:17.768Z,1.30
2022-09-23T11:38:21.256Z,1.30
2022-09-23T11:39:29.580Z,1.60
2022-09-23T11:40:34.569Z,1.57
2022-09-23T11:41:39.692Z,1.50
2022-09-23T11:42:58.205Z,1.40
2022-09-23T11:44:10.641Z,1.40
2022-09-23T11:45:20.281Z,1.30
2022-09-23T11:46:37.703Z,1.70
2022-09-23T11:47:54.917Z,1.50
2022-09-23T11:49:09.279Z,1.50
2022-09-23T11:50:29.683Z,1.73
2022-09-23T11:51:38.057Z,1.80
2022-09-23T11:52:46.296Z,1.92
2022-09-23T11:54:02.931Z,1.60
2022-09-23T11:55:24.384Z,1.92
2022-09-23T11:56:35.914Z,1.80
2022-09-23T11:57:53.749Z,1.70
2022-09-23T11:59:04.701Z,1.80
2022-09-23T12:00:12.713Z,1.48
2022-09-23T12:01:34.780Z,1.42
2022-09-23T12:03:09.585Z,1.38
2022-09-23T12:04:31.858Z,1.50
2022-09-23T12:05:44.803Z,1.20
2022-09-23T12:06:52.536Z,1.25
2022-09-23T12:08:04.479Z,1.40
2022-09-23T12:09:40.953Z,1.25
2022-09-23T12:10:50.350Z,1.25
2022-09-23T12:12:26.870Z,1.40
2022-09-23T12:14:13.220Z,1.20
2022-09-23T12:15:20.287Z,1.30
2022-09-23T12:16:53.782Z,1.30
2022-09-23T12:18:07.160Z,1.10
2022-09-23T12:19:28.186Z,1.60
2022-09-23T12:20:35.667Z,1.30
2022-09-23T12:21:58.081Z,1.60
2022-09-23T12:23:27.483Z,1.45
2022-09-23T12:24:47.526Z,1.20
2022-09-23T12:25:57.889Z,1.50
2022-09-23T12:27:06.108Z,1.40
2022-09-23T12:28:15.546Z,1.27
2022-09-23T12:29:17.486Z,1.20
2022-09-23T12:30:22.070Z,1.13
2022-09-23T12:31:33.893Z,1.23
2022-09-23T12:32:38.220Z,1.37
2022-09-23T12:33:39.869Z,1.08
2022-09-23T12:34:48.990Z,1.30
2022-09-23T12:35:53.969Z,1.10
2022-09-23T12:37:03.444Z,1.40
2022-09-23T12:38:13.702Z,1.02
2022-09-23T12:39:20.663Z,1.20
2022-09-23T12:40:31.243Z,1.00
2022-09-23T12:41:37.701Z,1.20
2022-09-23T12:42:46.012Z,1.10
2022-09-23T12:43:56.256Z,1.00
2022-09-23T12:45:19.417Z,1.33
2022-09-23T12:46:25.690Z,1.13
2022-09-23T12:47:28.908Z,1.03
2022-09-23T12:49:00.610Z,1.23
2022-09-23T12:50:02.375Z,1.33
2022-09-23T12:51:03.841Z,1.30
2022-09-23T12:52:17.514Z,1.20
2022-09-23T12:53:34.360Z,0.93
2022-09-23T12:54:36.089Z,1.10
2022-09-23T12:55:41.723Z,1.00
2022-09-23T12:56:55.932Z,1.40
2022-09-23T12:57:57.467Z,1.30
2022-09-23T12:59:01.713Z,1.25
2022-09-23T13:00:18.166Z,1.13
2022-09-23T13:01:25.286Z,1.20
2022-09-23T13:02:31.601Z,1.20
2022-09-23T13:03:51.835Z,1.40
2022-09-23T13:05:44.755Z,1.13
2022-09-23T13:07:05.164Z,1.20
2022-09-23T13:08:15.878Z,1.17
2022-09-23T13:09:24.843Z,1.20
2022-09-23T13:10:32.853Z,1.30
2022-09-23T13:11:40.359Z,1.30
2022-09-23T13:12:43.636Z,1.00
2022-09-23T13:13:46.224Z,1.33
2022-09-23T13:14:52.123Z,1.30
2022-09-23T13:15:55.002Z,1.10
2022-09-23T13:16:58.540Z,1.10
2022-09-23T13:18:18.954Z,1.25
2022-09-23T13:19:26.449Z,1.50
2022-09-23T13:20:38.410Z,1.20
2022-09-23T13:21:42.621Z,1.00
2022-09-23T13:22:51.750Z,1.02
2022-09-23T13:24:28.323Z,1.15
2022-09-23T13:25:33.434Z,1.00
2022-09-23T13:26:36.699Z,1.20
2022-09-23T13:27:41.384Z,1.40
2022-09-23T13:28:58.730Z,0.93
2022-09-23T13:30:26.751Z,1.10
2022-09-23T13:31:28.594Z,1.25
2022-09-23T13:32:34.547Z,1.00
2022-09-23T13:33:46.299Z,1.00
2022-09-23T13:35:15.796Z,1.17
2022-09-23T13:36:19.535Z,1.17
2022-09-23T13:37:24.506Z,1.10
2022-09-23T13:38:29.680Z,1.13
2022-09-23T13:39:31.203Z,1.10
2022-09-23T13:40:33.310Z,1.23
2022-09-23T13:41:36.164Z,1.30
2022-09-23T13:42:40.642Z,1.20
2022-09-23T13:43:51.910Z,1.30
2022-09-23T13:45:00.403Z,1.50
2022-09-23T13:46:05.228Z,1.10
2022-09-23T13:47:12.347Z,1.30
2022-09-23T13:48:15.456Z,1.40
2022-09-23T13:49:24.605Z,1.30
2022-09-23T13:50:26.564Z,1.50
2022-09-23T13:51:35.008Z,1.30
2022-09-23T13:52:36.562Z,1.50
2022-09-23T13:53:38.397Z,1.50
2022-09-23T13:54:49.630Z,1.60
2022-09-23T13:56:07.793Z,1.50
2022-09-23T13:57:32.271Z,1.13
2022-09-23T13:58:35.591Z,1.40
2022-09-23T13:59:38.668Z,1.40
2022-09-23T14:00:41.077Z,1.20
2022-09-23T14:01:42.625Z,1.35
2022-09-23T14:02:46.975Z,1.50
2022-09-23T14:03:48.625Z,1.47
2022-09-23T14:04:50.882Z,1.40
2022-09-23T14:05:54.410Z,1.70
2022-09-23T14:06:56.391Z,1.70
2022-09-23T14:07:58.076Z,1.67
2022-09-23T14:09:01.485Z,1.57
2022-09-23T14:10:06.143Z,1.70
2022-09-23T14:11:07.856Z,1.73
2022-09-23T14:12:10.306Z,1.60
2022-09-23T14:13:28.158Z,1.83
2022-09-23T14:14:30.773Z,1.90
2022-09-23T14:15:36.946Z,1.80
2022-09-23T14:16:40.742Z,1.67
2022-09-23T14:17:50.161Z,1.67
2022-09-23T14:18:56.139Z,1.40
2022-09-23T14:19:57.713Z,1.70
2022-09-23T14:20:59.287Z,1.60
2022-09-23T14:22:01.051Z,1.60
2022-09-23T14:23:07.622Z,1.60
2022-09-23T14:24:30.401Z,1.80
2022-09-23T14:25:33.141Z,1.90
2022-09-23T14:26:34.740Z,1.60
2022-09-23T14:27:36.573Z,1.80
2022-09-23T14:28:38.241Z,1.60
2022-09-23T14:29:42.329Z,1.85
2022-09-23T14:30:46.275Z,1.48
2022-09-23T14:31:57.242Z,1.80
2022-09-23T14:32:59.481Z,1.73
2022-09-23T14:34:01.018Z,1.60
2022-09-23T14:35:06.655Z,1.50
2022-09-23T14:36:30.982Z,1.30
2022-09-23T14:37:57.003Z,1.60
2022-09-23T14:39:11.179Z,1.50
2022-09-23T14:40:20.706Z,1.90
2022-09-23T14:41:25.324Z,1.70
2022-09-23T14:42:42.743Z,1.67
2022-09-23T14:44:03.276Z,1.93
2022-09-23T14:45:05.707Z,1.80
2022-09-23T14:46:18.348Z,2.20
2022-09-23T14:47:20.038Z,2.00
2022-09-23T14:48:33.423Z,1.90
2022-09-23T14:49:35.325Z,1.80
2022-09-23T14:50:39.344Z,1.83
2022-09-23T14:51:57.672Z,1.60
2022-09-23T14:52:59.222Z,1.80
2022-09-23T14:54:23.089Z,1.73
2022-09-23T14:55:28.759Z,1.67
2022-09-23T14:56:41.677Z,1.70
2022-09-23T14:57:45.189Z,1.70
2022-09-23T14:58:52.586Z,1.83
2022-09-23T14:59:54.655Z,1.70
2022-09-23T15:00:59.556Z,1.80
2022-09-23T15:02:01.808Z,1.70
2022-09-23T15:03:13.095Z,1.73
2022-09-23T15:04:16.416Z,1.57
2022-09-23T15:05:23.426Z,1.90
2022-09-23T15:06:25.629Z,1.70
2022-09-23T15:07:27.483Z,1.43
2022-09-23T15:08:33.105Z,1.60
2022-09-23T15:09:42.025Z,1.60
2022-09-23T15:10:43.640Z,1.80
2022-09-23T15:11:45.212Z,1.80
2022-09-23T15:12:49.112Z,1.73
2022-09-23T15:13:53.065Z,1.83